sensor_id;sensor_type;location;lat;lon;timestamp;P1;durP1;ratioP1;P2;durP2;ratioP2
14518;SDS011;7346;50.846;4.388;2022-08-19T00:00:33;23.17;;;18.80;;
14518;SDS011;7346;50.846;4.388;2022-08-19T00:03:00;24.58;;;20.67;;
14518;SDS011;7346;50.846;4.388;2022-08-19T00:05:27;23.67;;;21.17;;
14518;SDS011;7346;50.846;4.388;2022-08-19T00:07:54;26.00;;;23.00;;
14518;SDS011;7346;50.846;4.388;2022-08-19T00:10:21;25.65;;;22.95;;
14518;SDS011;7346;50.846;4.388;2022-08-19T00:12:52;23.40;;;20.95;;
14518;SDS011;7346;50.846;4.388;2022-08-19T00:15:21;24.15;;;21.65;;
14518;SDS011;7346;50.846;4.388;2022-08-19T00:17:48;28.30;;;25.42;;
14518;SDS011;7346;50.846;4.388;2022-08-19T00:20:17;32.20;;;27.38;;
14518;SDS011;7346;50.846;4.388;2022-08-19T00:22:47;33.50;;;29.95;;
14518;SDS011;7346;50.846;4.388;2022-08-19T00:25:14;38.83;;;34.42;;
14518;SDS011;7346;50.846;4.388;2022-08-19T00:27:41;40.70;;;35.35;;
14518;SDS011;7346;50.846;4.388;2022-08-19T00:30:08;42.30;;;33.97;;
14518;SDS011;7346;50.846;4.388;2022-08-19T00:32:38;43.53;;;36.75;;
14518;SDS011;7346;50.846;4.388;2022-08-19T00:35:06;52.90;;;39.67;;
14518;SDS011;7346;50.846;4.388;2022-08-19T00:37:34;49.25;;;38.25;;
14518;SDS011;7346;50.846;4.388;2022-08-19T00:40:02;52.15;;;39.75;;
14518;SDS011;7346;50.846;4.388;2022-08-19T00:42:30;45.13;;;39.00;;
14518;SDS011;7346;50.846;4.388;2022-08-19T00:45:00;46.63;;;39.35;;
14518;SDS011;7346;50.846;4.388;2022-08-19T00:47:27;48.88;;;40.63;;
14518;SDS011;7346;50.846;4.388;2022-08-19T00:49:56;49.83;;;39.63;;
14518;SDS011;7346;50.846;4.388;2022-08-19T00:52:26;52.22;;;43.42;;
14518;SDS011;7346;50.846;4.388;2022-08-19T00:54:55;57.20;;;45.45;;
14518;SDS011;7346;50.846;4.388;2022-08-19T00:57:26;56.15;;;45.00;;
14518;SDS011;7346;50.846;4.388;2022-08-19T00:59:56;57.55;;;44.85;;
14518;SDS011;7346;50.846;4.388;2022-08-19T01:02:28;56.50;;;46.15;;
14518;SDS011;7346;50.846;4.388;2022-08-19T01:04:57;54.75;;;45.20;;
14518;SDS011;7346;50.846;4.388;2022-08-19T01:07:26;52.75;;;44.70;;
14518;SDS011;7346;50.846;4.388;2022-08-19T01:09:59;51.35;;;42.42;;
14518;SDS011;7346;50.846;4.388;2022-08-19T01:12:27;56.42;;;44.83;;
14518;SDS011;7346;50.846;4.388;2022-08-19T01:14:55;51.92;;;42.33;;
14518;SDS011;7346;50.846;4.388;2022-08-19T01:17:22;48.53;;;39.60;;
14518;SDS011;7346;50.846;4.388;2022-08-19T01:19:49;48.75;;;39.40;;
14518;SDS011;7346;50.846;4.388;2022-08-19T01:22:19;43.97;;;37.05;;
14518;SDS011;7346;50.846;4.388;2022-08-19T01:24:54;43.78;;;34.83;;
14518;SDS011;7346;50.846;4.388;2022-08-19T01:27:21;42.88;;;35.25;;
14518;SDS011;7346;50.846;4.388;2022-08-19T01:29:48;40.90;;;34.33;;
14518;SDS011;7346;50.846;4.388;2022-08-19T01:32:16;42.35;;;34.78;;
14518;SDS011;7346;50.846;4.388;2022-08-19T01:34:44;42.67;;;34.42;;
14518;SDS011;7346;50.846;4.388;2022-08-19T01:37:12;39.28;;;33.35;;
14518;SDS011;7346;50.846;4.388;2022-08-19T01:39:44;40.75;;;33.25;;
14518;SDS011;7346;50.846;4.388;2022-08-19T01:42:11;36.80;;;32.50;;
14518;SDS011;7346;50.846;4.388;2022-08-19T01:44:38;38.10;;;32.92;;
14518;SDS011;7346;50.846;4.388;2022-08-19T01:47:06;34.33;;;30.70;;
14518;SDS011;7346;50.846;4.388;2022-08-19T01:49:35;31.25;;;27.55;;
14518;SDS011;7346;50.846;4.388;2022-08-19T01:52:03;31.58;;;27.45;;
14518;SDS011;7346;50.846;4.388;2022-08-19T01:54:31;27.83;;;24.88;;
14518;SDS011;7346;50.846;4.388;2022-08-19T01:57:06;28.05;;;25.08;;
14518;SDS011;7346;50.846;4.388;2022-08-19T01:59:36;28.67;;;25.67;;
14518;SDS011;7346;50.846;4.388;2022-08-19T02:02:04;29.67;;;25.60;;
14518;SDS011;7346;50.846;4.388;2022-08-19T02:04:32;28.15;;;25.15;;
14518;SDS011;7346;50.846;4.388;2022-08-19T02:06:59;28.35;;;25.27;;
14518;SDS011;7346;50.846;4.388;2022-08-19T02:09:27;28.92;;;25.77;;
14518;SDS011;7346;50.846;4.388;2022-08-19T02:11:54;27.25;;;23.65;;
14518;SDS011;7346;50.846;4.388;2022-08-19T02:14:22;23.85;;;21.40;;
14518;SDS011;7346;50.846;4.388;2022-08-19T02:16:49;21.92;;;19.52;;
14518;SDS011;7346;50.846;4.388;2022-08-19T02:19:16;24.00;;;19.45;;
14518;SDS011;7346;50.846;4.388;2022-08-19T02:21:44;22.13;;;19.70;;
14518;SDS011;7346;50.846;4.388;2022-08-19T02:24:11;21.65;;;19.35;;
14518;SDS011;7346;50.846;4.388;2022-08-19T02:26:38;24.90;;;21.73;;
14518;SDS011;7346;50.846;4.388;2022-08-19T02:29:05;24.95;;;20.98;;
14518;SDS011;7346;50.846;4.388;2022-08-19T02:31:33;22.67;;;20.27;;
14518;SDS011;7346;50.846;4.388;2022-08-19T02:34:00;27.40;;;24.50;;
14518;SDS011;7346;50.846;4.388;2022-08-19T02:36:27;27.63;;;24.70;;
14518;SDS011;7346;50.846;4.388;2022-08-19T02:38:55;27.20;;;24.27;;
14518;SDS011;7346;50.846;4.388;2022-08-19T02:41:22;27.67;;;23.33;;
14518;SDS011;7346;50.846;4.388;2022-08-19T02:43:50;28.00;;;21.70;;
14518;SDS011;7346;50.846;4.388;2022-08-19T02:46:20;26.52;;;21.83;;
14518;SDS011;7346;50.846;4.388;2022-08-19T02:48:50;25.95;;;20.50;;
14518;SDS011;7346;50.846;4.388;2022-08-19T02:51:18;27.02;;;21.25;;
14518;SDS011;7346;50.846;4.388;2022-08-19T02:53:46;25.05;;;20.25;;
14518;SDS011;7346;50.846;4.388;2022-08-19T02:56:13;27.83;;;21.50;;
14518;SDS011;7346;50.846;4.388;2022-08-19T02:58:40;27.02;;;22.58;;
14518;SDS011;7346;50.846;4.388;2022-08-19T03:01:08;29.40;;;22.85;;
14518;SDS011;7346;50.846;4.388;2022-08-19T03:03:36;27.42;;;22.52;;
14518;SDS011;7346;50.846;4.388;2022-08-19T03:06:06;28.17;;;21.73;;
14518;SDS011;7346;50.846;4.388;2022-08-19T03:08:35;27.67;;;22.60;;
14518;SDS011;7346;50.846;4.388;2022-08-19T03:11:03;24.08;;;20.17;;
14518;SDS011;7346;50.846;4.388;2022-08-19T03:13:30;26.35;;;20.75;;
14518;SDS011;7346;50.846;4.388;2022-08-19T03:15:57;25.98;;;20.08;;
14518;SDS011;7346;50.846;4.388;2022-08-19T03:18:24;25.25;;;20.20;;
14518;SDS011;7346;50.846;4.388;2022-08-19T03:20:52;25.63;;;20.45;;
14518;SDS011;7346;50.846;4.388;2022-08-19T03:23:21;26.88;;;21.98;;
14518;SDS011;7346;50.846;4.388;2022-08-19T03:25:50;25.67;;;20.42;;
14518;SDS011;7346;50.846;4.388;2022-08-19T03:28:19;29.45;;;22.27;;
14518;SDS011;7346;50.846;4.388;2022-08-19T03:30:56;28.80;;;22.88;;
14518;SDS011;7346;50.846;4.388;2022-08-19T03:33:25;26.70;;;22.30;;
14518;SDS011;7346;50.846;4.388;2022-08-19T03:36:03;27.77;;;21.25;;
14518;SDS011;7346;50.846;4.388;2022-08-19T03:38:34;25.05;;;20.40;;
14518;SDS011;7346;50.846;4.388;2022-08-19T03:41:03;22.10;;;18.58;;
14518;SDS011;7346;50.846;4.388;2022-08-19T03:43:31;22.85;;;19.45;;
14518;SDS011;7346;50.846;4.388;2022-08-19T03:46:00;26.00;;;18.77;;
14518;SDS011;7346;50.846;4.388;2022-08-19T03:48:29;28.17;;;20.40;;
14518;SDS011;7346;50.846;4.388;2022-08-19T03:50:57;27.52;;;20.60;;
14518;SDS011;7346;50.846;4.388;2022-08-19T03:53:25;28.73;;;21.75;;
14518;SDS011;7346;50.846;4.388;2022-08-19T03:55:54;29.52;;;23.38;;
14518;SDS011;7346;50.846;4.388;2022-08-19T03:58:22;31.73;;;24.20;;
14518;SDS011;7346;50.846;4.388;2022-08-19T04:00:49;31.00;;;23.75;;
14518;SDS011;7346;50.846;4.388;2022-08-19T04:03:16;27.58;;;22.48;;
14518;SDS011;7346;50.846;4.388;2022-08-19T04:05:45;27.60;;;22.45;;
14518;SDS011;7346;50.846;4.388;2022-08-19T04:08:12;30.05;;;21.92;;
14518;SDS011;7346;50.846;4.388;2022-08-19T04:10:40;30.60;;;23.00;;
14518;SDS011;7346;50.846;4.388;2022-08-19T04:13:08;31.50;;;23.42;;
14518;SDS011;7346;50.846;4.388;2022-08-19T04:15:38;32.10;;;22.80;;
14518;SDS011;7346;50.846;4.388;2022-08-19T04:18:07;30.83;;;22.65;;
14518;SDS011;7346;50.846;4.388;2022-08-19T04:20:38;29.98;;;21.98;;
14518;SDS011;7346;50.846;4.388;2022-08-19T04:23:10;26.48;;;20.75;;
14518;SDS011;7346;50.846;4.388;2022-08-19T04:25:37;27.63;;;21.48;;
14518;SDS011;7346;50.846;4.388;2022-08-19T04:28:06;29.25;;;21.08;;
14518;SDS011;7346;50.846;4.388;2022-08-19T04:30:39;29.27;;;19.92;;
14518;SDS011;7346;50.846;4.388;2022-08-19T04:33:07;26.88;;;20.50;;
14518;SDS011;7346;50.846;4.388;2022-08-19T04:35:35;26.55;;;19.50;;
14518;SDS011;7346;50.846;4.388;2022-08-19T04:38:03;25.55;;;19.38;;
14518;SDS011;7346;50.846;4.388;2022-08-19T04:40:30;23.20;;;17.08;;
14518;SDS011;7346;50.846;4.388;2022-08-19T04:43:15;25.58;;;16.85;;
14518;SDS011;7346;50.846;4.388;2022-08-19T04:45:43;26.95;;;16.67;;
14518;SDS011;7346;50.846;4.388;2022-08-19T04:48:11;22.02;;;15.68;;
14518;SDS011;7346;50.846;4.388;2022-08-19T04:50:39;26.90;;;15.32;;
14518;SDS011;7346;50.846;4.388;2022-08-19T04:53:07;21.98;;;15.75;;
14518;SDS011;7346;50.846;4.388;2022-08-19T04:55:38;21.50;;;15.52;;
14518;SDS011;7346;50.846;4.388;2022-08-19T04:58:06;23.63;;;14.40;;
14518;SDS011;7346;50.846;4.388;2022-08-19T05:00:33;21.75;;;14.95;;
14518;SDS011;7346;50.846;4.388;2022-08-19T05:03:04;20.98;;;15.07;;
14518;SDS011;7346;50.846;4.388;2022-08-19T05:05:32;18.98;;;14.50;;
14518;SDS011;7346;50.846;4.388;2022-08-19T05:07:59;25.35;;;15.30;;
14518;SDS011;7346;50.846;4.388;2022-08-19T05:10:25;21.48;;;15.25;;
14518;SDS011;7346;50.846;4.388;2022-08-19T05:12:52;21.83;;;14.80;;
14518;SDS011;7346;50.846;4.388;2022-08-19T05:15:19;23.27;;;14.70;;
14518;SDS011;7346;50.846;4.388;2022-08-19T05:17:46;21.10;;;13.50;;
14518;SDS011;7346;50.846;4.388;2022-08-19T05:20:29;21.80;;;13.95;;
14518;SDS011;7346;50.846;4.388;2022-08-19T05:23:13;22.92;;;13.25;;
14518;SDS011;7346;50.846;4.388;2022-08-19T05:25:40;19.88;;;13.88;;
14518;SDS011;7346;50.846;4.388;2022-08-19T05:28:07;19.77;;;13.68;;
14518;SDS011;7346;50.846;4.388;2022-08-19T05:30:37;16.90;;;13.30;;
14518;SDS011;7346;50.846;4.388;2022-08-19T05:33:06;23.25;;;14.57;;
14518;SDS011;7346;50.846;4.388;2022-08-19T05:35:37;23.42;;;14.95;;
14518;SDS011;7346;50.846;4.388;2022-08-19T05:38:06;22.23;;;15.07;;
14518;SDS011;7346;50.846;4.388;2022-08-19T05:40:34;21.25;;;15.63;;
14518;SDS011;7346;50.846;4.388;2022-08-19T05:43:02;22.38;;;16.13;;
14518;SDS011;7346;50.846;4.388;2022-08-19T05:45:30;22.52;;;16.42;;
14518;SDS011;7346;50.846;4.388;2022-08-19T05:47:57;21.98;;;16.75;;
14518;SDS011;7346;50.846;4.388;2022-08-19T05:50:24;23.25;;;16.60;;
14518;SDS011;7346;50.846;4.388;2022-08-19T05:52:53;24.20;;;17.00;;
14518;SDS011;7346;50.846;4.388;2022-08-19T05:55:20;21.25;;;16.30;;
14518;SDS011;7346;50.846;4.388;2022-08-19T05:57:47;21.33;;;15.93;;
14518;SDS011;7346;50.846;4.388;2022-08-19T06:00:14;26.05;;;16.13;;
14518;SDS011;7346;50.846;4.388;2022-08-19T06:02:42;18.80;;;14.13;;
14518;SDS011;7346;50.846;4.388;2022-08-19T06:05:09;23.77;;;14.32;;
14518;SDS011;7346;50.846;4.388;2022-08-19T06:07:36;20.35;;;13.65;;
14518;SDS011;7346;50.846;4.388;2022-08-19T06:10:06;19.95;;;11.88;;
14518;SDS011;7346;50.846;4.388;2022-08-19T06:12:35;18.08;;;11.57;;
14518;SDS011;7346;50.846;4.388;2022-08-19T06:15:04;21.83;;;11.70;;
14518;SDS011;7346;50.846;4.388;2022-08-19T06:17:33;15.02;;;10.88;;
14518;SDS011;7346;50.846;4.388;2022-08-19T06:20:01;17.42;;;10.20;;
14518;SDS011;7346;50.846;4.388;2022-08-19T06:22:29;17.00;;;10.02;;
14518;SDS011;7346;50.846;4.388;2022-08-19T06:24:56;14.82;;;9.77;;
14518;SDS011;7346;50.846;4.388;2022-08-19T06:27:24;15.98;;;9.70;;
14518;SDS011;7346;50.846;4.388;2022-08-19T06:29:51;15.82;;;9.20;;
14518;SDS011;7346;50.846;4.388;2022-08-19T06:32:19;17.95;;;9.93;;
14518;SDS011;7346;50.846;4.388;2022-08-19T06:34:46;14.77;;;9.52;;
14518;SDS011;7346;50.846;4.388;2022-08-19T06:37:13;19.75;;;9.40;;
14518;SDS011;7346;50.846;4.388;2022-08-19T06:39:41;14.75;;;8.13;;
14518;SDS011;7346;50.846;4.388;2022-08-19T06:42:10;20.27;;;8.93;;
14518;SDS011;7346;50.846;4.388;2022-08-19T06:44:40;10.88;;;7.97;;
14518;SDS011;7346;50.846;4.388;2022-08-19T06:47:08;17.38;;;8.23;;
14518;SDS011;7346;50.846;4.388;2022-08-19T06:49:37;14.32;;;7.68;;
14518;SDS011;7346;50.846;4.388;2022-08-19T06:52:04;12.60;;;7.45;;
14518;SDS011;7346;50.846;4.388;2022-08-19T06:54:32;12.55;;;7.82;;
14518;SDS011;7346;50.846;4.388;2022-08-19T06:56:59;14.23;;;8.27;;
14518;SDS011;7346;50.846;4.388;2022-08-19T06:59:27;12.52;;;8.00;;
14518;SDS011;7346;50.846;4.388;2022-08-19T07:01:59;15.40;;;8.35;;
14518;SDS011;7346;50.846;4.388;2022-08-19T07:04:30;14.15;;;8.43;;
14518;SDS011;7346;50.846;4.388;2022-08-19T07:06:59;15.98;;;8.07;;
14518;SDS011;7346;50.846;4.388;2022-08-19T07:09:28;14.70;;;9.57;;
14518;SDS011;7346;50.846;4.388;2022-08-19T07:11:55;13.57;;;8.57;;
14518;SDS011;7346;50.846;4.388;2022-08-19T07:14:23;12.10;;;8.02;;
14518;SDS011;7346;50.846;4.388;2022-08-19T07:16:53;13.55;;;8.32;;
14518;SDS011;7346;50.846;4.388;2022-08-19T07:19:23;16.05;;;8.93;;
14518;SDS011;7346;50.846;4.388;2022-08-19T07:21:53;13.77;;;8.13;;
14518;SDS011;7346;50.846;4.388;2022-08-19T07:24:21;13.30;;;8.55;;
14518;SDS011;7346;50.846;4.388;2022-08-19T07:26:50;18.38;;;8.20;;
14518;SDS011;7346;50.846;4.388;2022-08-19T07:29:18;14.73;;;8.60;;
14518;SDS011;7346;50.846;4.388;2022-08-19T07:31:48;12.85;;;7.70;;
14518;SDS011;7346;50.846;4.388;2022-08-19T07:34:15;14.07;;;8.40;;
14518;SDS011;7346;50.846;4.388;2022-08-19T07:36:44;10.35;;;6.93;;
14518;SDS011;7346;50.846;4.388;2022-08-19T07:39:13;10.10;;;6.55;;
14518;SDS011;7346;50.846;4.388;2022-08-19T07:41:42;11.15;;;6.60;;
14518;SDS011;7346;50.846;4.388;2022-08-19T07:44:11;10.05;;;6.57;;
14518;SDS011;7346;50.846;4.388;2022-08-19T07:46:39;16.33;;;5.90;;
14518;SDS011;7346;50.846;4.388;2022-08-19T07:49:09;17.10;;;6.82;;
14518;SDS011;7346;50.846;4.388;2022-08-19T07:51:42;10.52;;;6.45;;
14518;SDS011;7346;50.846;4.388;2022-08-19T07:54:11;14.82;;;5.95;;
14518;SDS011;7346;50.846;4.388;2022-08-19T07:56:38;13.65;;;6.28;;
14518;SDS011;7346;50.846;4.388;2022-08-19T07:59:05;11.73;;;10.25;;
14518;SDS011;7346;50.846;4.388;2022-08-19T08:01:32;14.85;;;10.70;;
14518;SDS011;7346;50.846;4.388;2022-08-19T08:03:59;9.48;;;6.38;;
14518;SDS011;7346;50.846;4.388;2022-08-19T08:06:45;13.43;;;8.90;;
14518;SDS011;7346;50.846;4.388;2022-08-19T08:09:30;12.00;;;6.32;;
14518;SDS011;7346;50.846;4.388;2022-08-19T08:12:02;21.23;;;16.40;;
14518;SDS011;7346;50.846;4.388;2022-08-19T08:14:32;13.25;;;7.60;;
14518;SDS011;7346;50.846;4.388;2022-08-19T08:17:02;11.85;;;6.05;;
14518;SDS011;7346;50.846;4.388;2022-08-19T08:19:29;9.52;;;5.40;;
14518;SDS011;7346;50.846;4.388;2022-08-19T08:21:58;9.32;;;5.78;;
14518;SDS011;7346;50.846;4.388;2022-08-19T08:24:27;6.93;;;5.57;;
14518;SDS011;7346;50.846;4.388;2022-08-19T08:26:57;7.47;;;5.45;;
14518;SDS011;7346;50.846;4.388;2022-08-19T08:29:25;8.45;;;6.10;;
14518;SDS011;7346;50.846;4.388;2022-08-19T08:31:53;9.98;;;6.72;;
14518;SDS011;7346;50.846;4.388;2022-08-19T08:34:20;10.10;;;5.82;;
14518;SDS011;7346;50.846;4.388;2022-08-19T08:36:47;10.00;;;6.13;;
14518;SDS011;7346;50.846;4.388;2022-08-19T08:39:18;7.82;;;6.25;;
14518;SDS011;7346;50.846;4.388;2022-08-19T08:41:47;9.35;;;6.13;;
14518;SDS011;7346;50.846;4.388;2022-08-19T08:44:20;8.60;;;5.50;;
14518;SDS011;7346;50.846;4.388;2022-08-19T08:46:53;11.45;;;5.60;;
14518;SDS011;7346;50.846;4.388;2022-08-19T08:49:26;9.02;;;5.85;;
14518;SDS011;7346;50.846;4.388;2022-08-19T08:52:00;11.40;;;5.22;;
14518;SDS011;7346;50.846;4.388;2022-08-19T08:54:33;10.13;;;5.63;;
14518;SDS011;7346;50.846;4.388;2022-08-19T08:57:04;7.70;;;5.53;;
14518;SDS011;7346;50.846;4.388;2022-08-19T08:59:34;10.63;;;6.28;;
14518;SDS011;7346;50.846;4.388;2022-08-19T09:02:03;6.90;;;5.82;;
14518;SDS011;7346;50.846;4.388;2022-08-19T09:04:30;9.88;;;5.22;;
14518;SDS011;7346;50.846;4.388;2022-08-19T09:07:00;8.35;;;4.75;;
14518;SDS011;7346;50.846;4.388;2022-08-19T09:09:42;6.28;;;4.55;;
14518;SDS011;7346;50.846;4.388;2022-08-19T09:12:14;8.23;;;6.05;;
14518;SDS011;7346;50.846;4.388;2022-08-19T09:14:48;8.65;;;6.15;;
14518;SDS011;7346;50.846;4.388;2022-08-19T09:17:17;9.35;;;6.50;;
14518;SDS011;7346;50.846;4.388;2022-08-19T09:19:47;8.57;;;6.05;;
14518;SDS011;7346;50.846;4.388;2022-08-19T09:22:19;8.18;;;5.38;;
14518;SDS011;7346;50.846;4.388;2022-08-19T09:24:48;11.43;;;8.38;;
14518;SDS011;7346;50.846;4.388;2022-08-19T09:27:17;10.85;;;5.70;;
14518;SDS011;7346;50.846;4.388;2022-08-19T09:29:45;7.00;;;4.80;;
14518;SDS011;7346;50.846;4.388;2022-08-19T09:32:14;7.28;;;5.35;;
14518;SDS011;7346;50.846;4.388;2022-08-19T09:34:42;6.57;;;5.30;;
14518;SDS011;7346;50.846;4.388;2022-08-19T09:37:09;8.88;;;6.82;;
14518;SDS011;7346;50.846;4.388;2022-08-19T09:39:37;10.02;;;5.82;;
14518;SDS011;7346;50.846;4.388;2022-08-19T09:42:07;14.50;;;10.02;;
14518;SDS011;7346;50.846;4.388;2022-08-19T09:44:37;6.60;;;5.43;;
14518;SDS011;7346;50.846;4.388;2022-08-19T09:47:04;7.05;;;5.95;;
14518;SDS011;7346;50.846;4.388;2022-08-19T09:49:32;10.25;;;5.10;;
14518;SDS011;7346;50.846;4.388;2022-08-19T09:51:59;9.18;;;5.60;;
14518;SDS011;7346;50.846;4.388;2022-08-19T09:54:26;8.43;;;5.45;;
14518;SDS011;7346;50.846;4.388;2022-08-19T09:56:53;8.00;;;4.85;;
14518;SDS011;7346;50.846;4.388;2022-08-19T09:59:23;6.38;;;4.68;;
14518;SDS011;7346;50.846;4.388;2022-08-19T10:01:50;8.50;;;5.10;;
14518;SDS011;7346;50.846;4.388;2022-08-19T10:04:18;6.40;;;4.30;;
14518;SDS011;7346;50.846;4.388;2022-08-19T10:06:46;7.82;;;4.47;;
14518;SDS011;7346;50.846;4.388;2022-08-19T10:09:14;6.82;;;4.97;;
14518;SDS011;7346;50.846;4.388;2022-08-19T10:11:46;5.75;;;4.07;;
14518;SDS011;7346;50.846;4.388;2022-08-19T10:14:13;5.47;;;3.92;;
14518;SDS011;7346;50.846;4.388;2022-08-19T10:16:43;12.50;;;3.90;;
14518;SDS011;7346;50.846;4.388;2022-08-19T10:19:10;5.28;;;3.95;;
14518;SDS011;7346;50.846;4.388;2022-08-19T10:21:36;5.85;;;4.25;;
14518;SDS011;7346;50.846;4.388;2022-08-19T10:24:04;5.78;;;4.25;;
14518;SDS011;7346;50.846;4.388;2022-08-19T10:26:33;6.38;;;4.50;;
14518;SDS011;7346;50.846;4.388;2022-08-19T10:29:02;5.85;;;4.47;;
14518;SDS011;7346;50.846;4.388;2022-08-19T10:31:31;5.57;;;4.78;;
14518;SDS011;7346;50.846;4.388;2022-08-19T10:34:00;5.95;;;5.28;;
14518;SDS011;7346;50.846;4.388;2022-08-19T10:36:29;10.23;;;8.68;;
14518;SDS011;7346;50.846;4.388;2022-08-19T10:38:58;8.38;;;5.88;;
14518;SDS011;7346;50.846;4.388;2022-08-19T10:41:30;8.68;;;5.38;;
14518;SDS011;7346;50.846;4.388;2022-08-19T10:44:00;9.82;;;7.10;;
14518;SDS011;7346;50.846;4.388;2022-08-19T10:46:28;8.55;;;7.25;;
14518;SDS011;7346;50.846;4.388;2022-08-19T10:48:57;6.70;;;6.00;;
14518;SDS011;7346;50.846;4.388;2022-08-19T10:51:27;8.15;;;6.38;;
14518;SDS011;7346;50.846;4.388;2022-08-19T10:54:11;10.52;;;6.65;;
14518;SDS011;7346;50.846;4.388;2022-08-19T10:56:39;7.88;;;6.88;;
14518;SDS011;7346;50.846;4.388;2022-08-19T10:59:18;8.75;;;7.00;;
14518;SDS011;7346;50.846;4.388;2022-08-19T11:01:46;10.60;;;7.03;;
14518;SDS011;7346;50.846;4.388;2022-08-19T11:04:15;8.27;;;6.75;;
14518;SDS011;7346;50.846;4.388;2022-08-19T11:06:43;10.68;;;7.30;;
14518;SDS011;7346;50.846;4.388;2022-08-19T11:09:12;9.70;;;7.20;;
14518;SDS011;7346;50.846;4.388;2022-08-19T11:11:40;10.95;;;7.70;;
14518;SDS011;7346;50.846;4.388;2022-08-19T11:14:08;9.43;;;7.60;;
14518;SDS011;7346;50.846;4.388;2022-08-19T11:16:36;9.32;;;7.35;;
14518;SDS011;7346;50.846;4.388;2022-08-19T11:19:04;8.40;;;5.35;;
14518;SDS011;7346;50.846;4.388;2022-08-19T11:21:35;6.28;;;5.43;;
14518;SDS011;7346;50.846;4.388;2022-08-19T11:24:04;8.95;;;5.43;;
14518;SDS011;7346;50.846;4.388;2022-08-19T11:26:34;8.70;;;5.40;;
14518;SDS011;7346;50.846;4.388;2022-08-19T11:29:05;8.07;;;7.28;;
14518;SDS011;7346;50.846;4.388;2022-08-19T11:31:36;8.75;;;7.43;;
14518;SDS011;7346;50.846;4.388;2022-08-19T11:34:06;10.20;;;7.55;;
14518;SDS011;7346;50.846;4.388;2022-08-19T11:36:36;10.05;;;8.32;;
14518;SDS011;7346;50.846;4.388;2022-08-19T11:39:04;11.32;;;8.52;;
14518;SDS011;7346;50.846;4.388;2022-08-19T11:41:32;9.07;;;8.15;;
14518;SDS011;7346;50.846;4.388;2022-08-19T11:43:59;9.18;;;8.15;;
14518;SDS011;7346;50.846;4.388;2022-08-19T11:46:29;10.88;;;8.20;;
14518;SDS011;7346;50.846;4.388;2022-08-19T11:49:00;11.20;;;7.80;;
14518;SDS011;7346;50.846;4.388;2022-08-19T11:51:30;8.73;;;7.40;;
14518;SDS011;7346;50.846;4.388;2022-08-19T11:53:59;9.60;;;7.45;;
14518;SDS011;7346;50.846;4.388;2022-08-19T11:56:27;10.10;;;7.18;;
14518;SDS011;7346;50.846;4.388;2022-08-19T11:58:55;9.35;;;6.70;;
14518;SDS011;7346;50.846;4.388;2022-08-19T12:01:23;9.75;;;6.68;;
14518;SDS011;7346;50.846;4.388;2022-08-19T12:03:52;8.43;;;6.35;;
14518;SDS011;7346;50.846;4.388;2022-08-19T12:06:21;7.15;;;6.45;;
14518;SDS011;7346;50.846;4.388;2022-08-19T12:08:50;10.50;;;8.07;;
14518;SDS011;7346;50.846;4.388;2022-08-19T12:11:20;7.43;;;6.07;;
14518;SDS011;7346;50.846;4.388;2022-08-19T12:13:46;8.13;;;5.75;;
14518;SDS011;7346;50.846;4.388;2022-08-19T12:16:14;12.75;;;7.75;;
14518;SDS011;7346;50.846;4.388;2022-08-19T12:18:43;7.22;;;5.25;;
14518;SDS011;7346;50.846;4.388;2022-08-19T12:21:11;6.68;;;5.00;;
14518;SDS011;7346;50.846;4.388;2022-08-19T12:23:39;8.82;;;5.15;;
14518;SDS011;7346;50.846;4.388;2022-08-19T12:26:06;8.93;;;4.95;;
14518;SDS011;7346;50.846;4.388;2022-08-19T12:28:36;6.40;;;4.88;;
14518;SDS011;7346;50.846;4.388;2022-08-19T12:31:04;5.35;;;4.35;;
14518;SDS011;7346;50.846;4.388;2022-08-19T12:33:31;5.57;;;4.03;;
14518;SDS011;7346;50.846;4.388;2022-08-19T12:36:00;5.57;;;4.00;;
14518;SDS011;7346;50.846;4.388;2022-08-19T12:38:29;5.93;;;3.10;;
14518;SDS011;7346;50.846;4.388;2022-08-19T12:40:57;5.72;;;3.40;;
14518;SDS011;7346;50.846;4.388;2022-08-19T12:43:24;4.65;;;3.28;;
14518;SDS011;7346;50.846;4.388;2022-08-19T12:45:53;4.70;;;2.92;;
14518;SDS011;7346;50.846;4.388;2022-08-19T12:48:19;4.43;;;3.20;;
14518;SDS011;7346;50.846;4.388;2022-08-19T12:50:46;4.15;;;2.92;;
14518;SDS011;7346;50.846;4.388;2022-08-19T12:53:14;3.83;;;2.85;;
14518;SDS011;7346;50.846;4.388;2022-08-19T12:55:41;3.10;;;2.42;;
14518;SDS011;7346;50.846;4.388;2022-08-19T12:58:08;3.92;;;2.45;;
14518;SDS011;7346;50.846;4.388;2022-08-19T13:00:37;3.60;;;2.47;;
14518;SDS011;7346;50.846;4.388;2022-08-19T13:03:06;2.75;;;1.95;;
14518;SDS011;7346;50.846;4.388;2022-08-19T13:05:33;6.03;;;2.28;;
14518;SDS011;7346;50.846;4.388;2022-08-19T13:08:00;2.83;;;2.40;;
14518;SDS011;7346;50.846;4.388;2022-08-19T13:10:28;3.47;;;1.95;;
14518;SDS011;7346;50.846;4.388;2022-08-19T13:13:00;5.80;;;2.30;;
14518;SDS011;7346;50.846;4.388;2022-08-19T13:15:28;5.72;;;2.15;;
14518;SDS011;7346;50.846;4.388;2022-08-19T13:17:56;4.07;;;2.35;;
14518;SDS011;7346;50.846;4.388;2022-08-19T13:20:25;3.80;;;2.13;;
14518;SDS011;7346;50.846;4.388;2022-08-19T13:22:53;3.88;;;2.45;;
14518;SDS011;7346;50.846;4.388;2022-08-19T13:25:22;4.38;;;2.08;;
14518;SDS011;7346;50.846;4.388;2022-08-19T13:27:50;4.82;;;2.00;;
14518;SDS011;7346;50.846;4.388;2022-08-19T13:30:18;3.17;;;1.75;;
14518;SDS011;7346;50.846;4.388;2022-08-19T13:33:03;2.80;;;1.70;;
14518;SDS011;7346;50.846;4.388;2022-08-19T13:35:38;4.75;;;3.45;;
14518;SDS011;7346;50.846;4.388;2022-08-19T13:38:05;3.90;;;3.47;;
14518;SDS011;7346;50.846;4.388;2022-08-19T13:40:32;3.65;;;2.00;;
14518;SDS011;7346;50.846;4.388;2022-08-19T13:43:00;3.72;;;1.73;;
14518;SDS011;7346;50.846;4.388;2022-08-19T13:45:29;3.42;;;1.77;;
14518;SDS011;7346;50.846;4.388;2022-08-19T13:47:59;4.32;;;2.55;;
14518;SDS011;7346;50.846;4.388;2022-08-19T13:50:30;3.58;;;2.28;;
14518;SDS011;7346;50.846;4.388;2022-08-19T13:52:59;3.15;;;1.67;;
14518;SDS011;7346;50.846;4.388;2022-08-19T13:55:27;3.95;;;2.65;;
14518;SDS011;7346;50.846;4.388;2022-08-19T13:57:55;8.38;;;1.58;;
14518;SDS011;7346;50.846;4.388;2022-08-19T14:00:24;5.10;;;2.03;;
14518;SDS011;7346;50.846;4.388;2022-08-19T14:02:54;3.70;;;1.80;;
14518;SDS011;7346;50.846;4.388;2022-08-19T14:05:23;3.30;;;2.22;;
14518;SDS011;7346;50.846;4.388;2022-08-19T14:07:51;3.33;;;1.83;;
14518;SDS011;7346;50.846;4.388;2022-08-19T14:10:20;4.15;;;1.83;;
14518;SDS011;7346;50.846;4.388;2022-08-19T14:12:48;3.05;;;1.95;;
14518;SDS011;7346;50.846;4.388;2022-08-19T14:15:18;7.32;;;2.00;;
14518;SDS011;7346;50.846;4.388;2022-08-19T14:17:45;7.00;;;2.05;;
14518;SDS011;7346;50.846;4.388;2022-08-19T14:20:14;6.03;;;2.30;;
14518;SDS011;7346;50.846;4.388;2022-08-19T14:22:41;8.20;;;7.35;;
14518;SDS011;7346;50.846;4.388;2022-08-19T14:25:10;9.70;;;8.40;;
14518;SDS011;7346;50.846;4.388;2022-08-19T14:27:40;7.00;;;3.90;;
14518;SDS011;7346;50.846;4.388;2022-08-19T14:30:08;8.18;;;4.53;;
14518;SDS011;7346;50.846;4.388;2022-08-19T14:32:37;4.78;;;2.47;;
14518;SDS011;7346;50.846;4.388;2022-08-19T14:35:04;5.40;;;1.80;;
14518;SDS011;7346;50.846;4.388;2022-08-19T14:37:32;3.28;;;2.55;;
14518;SDS011;7346;50.846;4.388;2022-08-19T14:40:00;3.60;;;1.80;;
14518;SDS011;7346;50.846;4.388;2022-08-19T14:42:27;5.35;;;1.50;;
14518;SDS011;7346;50.846;4.388;2022-08-19T14:44:58;2.35;;;1.73;;
14518;SDS011;7346;50.846;4.388;2022-08-19T14:47:25;2.28;;;1.55;;
14518;SDS011;7346;50.846;4.388;2022-08-19T14:49:53;3.10;;;1.63;;
14518;SDS011;7346;50.846;4.388;2022-08-19T14:52:20;3.13;;;1.40;;
14518;SDS011;7346;50.846;4.388;2022-08-19T14:54:47;2.13;;;1.52;;
14518;SDS011;7346;50.846;4.388;2022-08-19T14:57:14;3.03;;;1.42;;